CheckWX is a tool to help pilots better visualize weather data.  It is not intended as a substitute for an official pre-flight weather briefing.

23:20:50 UTC

KFME METAR
Tipton Airport
Fort Meade(Odenton), Maryland, USA
Current

18 mins ago

KFME 192303Z AUTO 00000KT 10SM SCT060 30/26 A2990 RMK AO1
Observed
Jul-19 @ 23:03 UTC
Visibility
10 SM
Flight Rules
VFR
Cloud Levels
  • Scattered at 6,000' AGL
Temperature
30°C / 86°F
Dewpoint
26°C / 79°F
Heat Index
37°C / 99°F
Humidity
79%
Altimeter
29.9" Hg
Pressure
1012.52 hPa
Previous

39 mins ago

KFME 192242Z AUTO 00000KT 10SM SCT060 31/26 A2990 RMK AO1
Observed
Jul-19 @ 22:42 UTC
Visibility
10 SM
Flight Rules
VFR
Cloud Levels
  • Scattered at 6,000' AGL
Temperature
31°C / 88°F
Dewpoint
26°C / 79°F
Heat Index
39°C / 103°F
Humidity
75%
Altimeter
29.9" Hg
Pressure
1012.52 hPa
Previous

60 mins ago

KFME 192221Z AUTO 20003KT 10SM SCT060 SCT080 30/27 A2990 RMK AO1
Observed
Jul-19 @ 22:21 UTC
Wind
  • 200° at 3 KTS
Visibility
10 SM
Flight Rules
VFR
Cloud Levels
  • Scattered at 6,000' AGL
  • Scattered at 8,000' AGL
Temperature
30°C / 86°F
Dewpoint
27°C / 81°F
Heat Index
39°C / 102°F
Humidity
84%
Altimeter
29.9" Hg
Pressure
1012.52 hPa